Time;durP1;ratioP1;P1;durP2;ratioP2;P2;SDS_P1;SDS_P2;PMS_P1;PMS_P2;Temp;Humidity;BMP_temperature;BMP_pressure;BME280_temperature;BME280_humidity;BME280_pressure;Samples;Min_cycle;Max_cycle;Signal;HPM_P1;HPM_P2
2021/12/16 00:05:36;;;;;;;8.88;6.15;;;;;;;10.92;62.40;98893.75;4996512;28;20147;-86
2021/12/16 00:08:12;;;;;;;9.52;5.95;;;;;;;10.97;62.30;98893.13;4997696;28;20269;-86
2021/12/16 00:10:47;;;;;;;10.30;5.70;;;;;;;10.92;62.20;98898.16;5003862;28;20346;-86
2021/12/16 00:30:50;;;;;;;9.05;6.25;;;;;;;10.82;62.13;98895.97;4988112;28;20184;-86
2021/12/16 00:35:10;;;;;;;7.93;5.43;;;;;;;10.75;62.05;98895.19;5002896;28;20235;-86
2021/12/16 00:37:35;;;;;;;10.82;6.35;;;;;;;10.76;61.97;98897.59;4985138;28;20279;-86
2021/12/16 00:40:02;;;;;;;9.90;6.32;;;;;;;10.76;62.08;98900.19;4970024;28;20769;-86
2021/12/16 00:47:50;;;;;;;10.88;6.75;;;;;;;10.73;62.42;98905.81;4989058;28;20193;-86
2021/12/16 00:54:09;;;;;;;7.40;5.68;;;;;;;10.68;62.37;98890.75;5005298;28;20201;-86
2021/12/16 00:55:54;;;;;;;10.38;6.35;;;;;;;10.72;62.27;98898.19;4991985;28;20298;-86
2021/12/16 00:58:25;;;;;;;7.95;5.60;;;;;;;10.67;62.18;98893.56;4987819;28;20270;-86
2021/12/16 01:00:59;;;;;;;9.40;5.95;;;;;;;10.73;62.39;98900.59;4974531;28;20723;-86
2021/12/16 01:03:33;;;;;;;10.98;5.95;;;;;;;10.75;61.93;98898.56;5002965;28;20223;-86
2021/12/16 01:06:16;;;;;;;9.15;5.60;;;;;;;10.71;62.38;98897.38;5007033;28;20228;-86
2021/12/16 01:33:57;;;;;;;10.15;6.10;;;;;;;10.62;62.16;98898.59;5007538;28;20813;-86
2021/12/16 01:49:46;;;;;;;11.80;6.68;;;;;;;10.70;62.25;98915.81;5006570;28;20104;-86
2021/12/16 01:55:08;;;;;;;10.18;5.75;;;;;;;10.60;62.18;98918.81;4999375;28;20201;-86
2021/12/16 01:57:42;;;;;;;10.40;6.22;;;;;;;10.61;62.43;98913.41;4989002;28;20177;-86
2021/12/16 02:00:15;;;;;;;11.75;6.95;;;;;;;10.58;62.32;98918.22;4987125;28;20398;-86
2021/12/16 02:02:51;;;;;;;9.90;6.07;;;;;;;10.62;62.06;98912.41;4957019;28;20193;-87
2021/12/16 02:05:34;;;;;;;10.45;6.20;;;;;;;10.58;62.18;98919.03;4967164;28;20227;-86
2021/12/16 02:10:40;;;;;;;10.25;6.32;;;;;;;10.55;62.00;98910.81;5006719;28;20538;-87
2021/12/16 02:35:26;;;;;;;12.63;7.03;;;;;;;10.53;62.45;98892.00;4987052;28;20095;-87
2021/12/16 02:37:35;;;;;;;11.30;7.75;;;;;;;10.42;62.50;98914.22;4978392;28;20198;-86
2021/12/16 02:40:05;;;;;;;12.52;7.28;;;;;;;10.36;62.65;98902.00;4986407;28;20155;-86
2021/12/16 02:42:50;;;;;;;10.88;7.07;;;;;;;10.47;62.69;98904.81;5001877;28;20184;-86
2021/12/16 02:50:43;;;;;;;14.40;8.05;;;;;;;10.45;62.47;98892.97;4987231;28;20245;-86
2021/12/16 02:53:09;;;;;;;12.48;7.60;;;;;;;10.55;62.46;98890.78;4976203;28;20353;-86
2021/12/16 02:55:34;;;;;;;12.23;7.28;;;;;;;10.54;62.38;98890.97;4971702;28;20224;-87
2021/12/16 02:58:00;;;;;;;12.73;7.50;;;;;;;10.53;62.72;98892.00;5002286;28;20592;-86
2021/12/16 03:00:32;;;;;;;12.27;7.13;;;;;;;10.38;62.70;98895.56;4970945;28;20194;-87
2021/12/16 03:02:58;;;;;;;17.67;7.97;;;;;;;10.51;62.88;98886.97;4986723;28;20197;-86
2021/12/16 03:05:23;;;;;;;11.10;6.60;;;;;;;10.43;62.59;98880.16;4999804;28;20069;-86
2021/12/16 03:07:50;;;;;;;10.90;6.13;;;;;;;10.51;62.49;98891.41;5003097;28;20177;-87
2021/12/16 03:12:56;;;;;;;10.98;7.35;;;;;;;10.42;62.97;98893.41;4988896;28;20304;-87
2021/12/16 03:15:48;;;;;;;13.02;7.57;;;;;;;10.45;62.75;98899.00;4987684;28;20249;-86
2021/12/16 03:18:37;;;;;;;12.68;7.53;;;;;;;10.41;62.58;98897.78;4998936;28;20228;-86
2021/12/16 03:21:14;;;;;;;11.30;7.35;;;;;;;10.41;62.51;98895.19;4983271;28;20625;-87
2021/12/16 03:40:10;;;;;;;12.80;8.40;;;;;;;10.24;62.91;98907.75;4988369;28;20243;-86
2021/12/16 03:42:46;;;;;;;13.75;8.50;;;;;;;10.28;63.24;98911.59;4987964;28;20158;-86
2021/12/16 03:48:09;;;;;;;13.38;7.60;;;;;;;10.48;62.47;98908.22;4983154;28;20449;-86
2021/12/16 03:50:35;;;;;;;13.02;7.05;;;;;;;10.58;62.54;98907.81;4978017;28;20317;-87
2021/12/16 03:53:02;;;;;;;11.10;7.47;;;;;;;10.52;62.37;98904.22;5001518;28;20245;-87
2021/12/16 03:55:27;;;;;;;10.90;7.13;;;;;;;10.44;62.67;98912.22;4987898;28;20164;-86
2021/12/16 03:57:53;;;;;;;12.38;7.32;;;;;;;10.39;62.88;98910.22;5002533;28;20161;-86
2021/12/16 04:00:33;;;;;;;12.82;7.80;;;;;;;10.29;62.75;98913.16;4987816;28;20150;-86
2021/12/16 04:02:58;;;;;;;13.73;7.88;;;;;;;10.43;62.88;98913.22;4974889;28;20203;-87
2021/12/16 04:05:24;;;;;;;13.05;7.60;;;;;;;10.39;63.05;98914.63;4966829;28;20229;-86
2021/12/16 04:07:50;;;;;;;11.38;6.68;;;;;;;10.41;62.78;98915.22;4970152;28;20289;-87
2021/12/16 04:10:23;;;;;;;10.95;7.25;;;;;;;10.30;63.00;98916.59;4995176;28;20201;-87
2021/12/16 04:12:50;;;;;;;10.10;7.25;;;;;;;10.35;62.89;98910.81;4963579;28;20224;-86
2021/12/16 04:15:19;;;;;;;10.82;7.00;;;;;;;10.37;63.02;98921.84;4969750;28;20242;-87
2021/12/16 04:17:44;;;;;;;11.52;7.90;;;;;;;10.41;62.89;98920.44;5001305;28;20149;-86
2021/12/16 04:20:12;;;;;;;10.93;6.70;;;;;;;10.38;63.14;98926.03;4962985;28;20232;-86
2021/12/16 04:22:43;;;;;;;11.63;7.10;;;;;;;10.34;62.89;98923.03;4971059;28;20264;-86
2021/12/16 04:25:13;;;;;;;10.80;6.63;;;;;;;10.50;62.74;98927.03;4979253;28;20185;-86
2021/12/16 04:27:40;;;;;;;14.98;7.82;;;;;;;10.46;62.49;98910.22;4961412;28;20175;-87
2021/12/16 04:30:07;;;;;;;10.75;7.05;;;;;;;10.68;62.04;98908.22;4987403;28;20352;-87
2021/12/16 04:32:33;;;;;;;11.40;7.40;;;;;;;10.54;61.98;98920.44;4987763;28;20537;-87
2021/12/16 04:34:58;;;;;;;13.55;8.00;;;;;;;10.46;62.43;98938.88;4977972;28;20185;-86
2021/12/16 04:37:23;;;;;;;12.55;7.85;;;;;;;10.40;62.62;98931.84;4967156;28;20181;-86
2021/12/16 04:39:49;;;;;;;12.88;7.43;;;;;;;10.35;62.78;98919.44;4985521;28;20185;-87
2021/12/16 04:42:17;;;;;;;11.93;7.40;;;;;;;10.44;62.82;98933.06;4995160;28;20563;-87
2021/12/16 04:44:43;;;;;;;11.73;7.68;;;;;;;10.51;62.31;98935.66;4964114;28;20186;-86
2021/12/16 04:47:10;;;;;;;11.13;7.13;;;;;;;10.35;63.00;98929.03;4964579;28;20198;-86
2021/12/16 04:49:35;;;;;;;12.43;7.38;;;;;;;10.37;62.98;98920.03;4986872;28;20246;-87
2021/12/16 04:52:05;;;;;;;12.65;7.55;;;;;;;10.38;62.51;98939.06;4999753;28;20603;-86
2021/12/16 04:54:30;;;;;;;12.32;7.72;;;;;;;10.46;62.64;98937.06;4975816;28;20179;-86
2021/12/16 04:56:57;;;;;;;12.95;7.00;;;;;;;10.46;62.63;98939.66;4960455;28;20266;-87
2021/12/16 04:59:23;;;;;;;10.35;7.03;;;;;;;10.41;62.54;98949.06;4974655;28;20681;-87
2021/12/16 05:01:53;;;;;;;11.38;7.70;;;;;;;10.34;62.95;98941.25;4967259;28;20271;-86
2021/12/16 05:04:19;;;;;;;12.15;7.88;;;;;;;10.42;62.97;98946.28;4998298;28;20224;-86
2021/12/16 05:06:45;;;;;;;12.32;7.90;;;;;;;10.52;62.61;98940.69;4982310;28;20215;-87
2021/12/16 05:09:28;;;;;;;12.25;7.85;;;;;;;10.40;62.52;98934.44;4997958;28;20275;-86
2021/12/16 05:11:54;;;;;;;12.52;7.30;;;;;;;10.43;62.76;98952.28;4973223;28;20672;-87
2021/12/16 05:14:20;;;;;;;10.43;6.90;;;;;;;10.42;62.50;98948.88;4983300;28;20271;-87
2021/12/16 05:16:46;;;;;;;10.70;7.55;;;;;;;10.29;63.10;98931.41;4981318;28;20192;-86
2021/12/16 05:19:11;;;;;;;12.52;6.90;;;;;;;10.39;62.98;98956.28;4969817;28;20189;-87
2021/12/16 05:24:26;;;;;;;12.25;7.43;;;;;;;10.32;62.93;98955.47;4996468;28;20279;-87
2021/12/16 05:26:58;;;;;;;12.45;7.57;;;;;;;10.22;63.09;98943.59;4982208;28;20645;-87
2021/12/16 05:29:24;;;;;;;13.93;8.27;;;;;;;10.29;63.07;98947.03;4986814;28;20673;-86
2021/12/16 05:31:51;;;;;;;10.98;6.93;;;;;;;10.38;63.08;98957.28;4984205;28;20551;-87
2021/12/16 05:34:17;;;;;;;10.80;6.78;;;;;;;10.38;62.99;98957.28;4985768;28;20271;-86
2021/12/16 05:36:42;;;;;;;11.50;7.32;;;;;;;10.39;62.79;98961.50;4988513;28;20505;-86
2021/12/16 05:39:09;;;;;;;12.70;8.30;;;;;;;10.33;63.04;98957.88;4988855;28;20624;-86
2021/12/16 05:41:35;;;;;;;9.88;7.03;;;;;;;10.40;62.78;98960.47;4971904;28;20283;-87
2021/12/16 05:44:00;;;;;;;12.60;7.47;;;;;;;10.38;62.73;98968.47;4967088;28;20616;-86
2021/12/16 05:46:26;;;;;;;12.90;8.18;;;;;;;10.36;62.84;98967.09;4997335;28;20605;-87
2021/12/16 05:48:54;;;;;;;12.55;7.70;;;;;;;10.36;62.83;98972.31;4986362;28;20365;-87
2021/12/16 05:51:26;;;;;;;11.73;7.10;;;;;;;10.27;62.88;98975.06;5005863;28;20200;-87
2021/12/16 05:53:53;;;;;;;12.15;7.18;;;;;;;10.39;62.76;98971.91;4973153;28;20647;-87
2021/12/16 05:56:18;;;;;;;12.20;8.05;;;;;;;10.45;62.88;98974.53;4971147;28;20201;-86
2021/12/16 05:58:44;;;;;;;16.80;9.25;;;;;;;10.42;62.60;98974.91;4965865;28;20662;-86
2021/12/16 06:01:18;;;;;;;12.85;8.38;;;;;;;10.30;62.71;98985.09;4983924;28;20769;-86
2021/12/16 06:03:44;;;;;;;13.93;7.57;;;;;;;10.43;63.00;98980.91;4968749;28;20081;-86
2021/12/16 06:06:10;;;;;;;14.80;8.00;;;;;;;10.43;62.74;98994.72;4998743;28;20235;-86
2021/12/16 06:08:37;;;;;;;12.23;7.55;;;;;;;10.41;62.72;98985.53;4964924;28;20625;-86
2021/12/16 06:13:49;;;;;;;11.45;7.18;;;;;;;10.38;62.73;98991.13;5001367;28;20635;-86
2021/12/16 06:27:14;;;;;;;12.35;7.15;;;;;;;10.42;62.86;98993.16;5004110;28;20186;-86
2021/12/16 06:29:44;;;;;;;11.70;7.70;;;;;;;10.37;62.63;98984.34;5001823;28;20235;-86
2021/12/16 06:32:09;;;;;;;12.68;8.27;;;;;;;10.61;62.44;98985.56;5002378;28;20099;-86
2021/12/16 06:34:35;;;;;;;12.93;7.72;;;;;;;10.64;62.05;98975.53;4987771;28;20307;-86
2021/12/16 06:37:01;;;;;;;13.25;7.63;;;;;;;10.57;61.73;98987.75;4987952;28;20224;-86
2021/12/16 06:39:26;;;;;;;15.52;9.32;;;;;;;10.53;62.23;98994.34;4995789;28;20069;-86
2021/12/16 06:41:52;;;;;;;13.15;7.30;;;;;;;10.45;62.55;98991.94;4988386;28;20213;-86
2021/12/16 06:44:28;;;;;;;13.57;7.85;;;;;;;10.46;62.58;98990.94;4989928;28;20236;-86
2021/12/16 06:46:59;;;;;;;11.50;7.18;;;;;;;10.41;62.29;98982.94;4971549;28;20693;-86
2021/12/16 06:49:26;;;;;;;12.45;7.93;;;;;;;10.46;62.36;98994.34;4989786;28;20177;-86
2021/12/16 06:51:57;;;;;;;13.60;7.55;;;;;;;10.42;62.39;99002.78;4973322;28;20357;-86
2021/12/16 06:54:35;;;;;;;11.02;6.60;;;;;;;10.43;62.49;98989.53;4990479;28;20111;-86
2021/12/16 06:59:47;;;;;;;13.00;8.40;;;;;;;10.45;62.39;98997.16;5006327;28;20192;-86
2021/12/16 07:02:39;;;;;;;14.65;8.98;;;;;;;10.39;62.83;98998.75;5002185;28;20278;-86
2021/12/16 07:05:04;;;;;;;13.35;7.93;;;;;;;10.38;62.76;98998.94;5006638;28;20310;-86
2021/12/16 07:07:29;;;;;;;13.77;8.43;;;;;;;10.46;62.30;98998.75;5006023;28;20741;-86
2021/12/16 07:09:54;;;;;;;11.15;7.97;;;;;;;10.32;62.83;98991.94;5003073;28;20351;-86
2021/12/16 07:12:26;;;;;;;14.75;8.82;;;;;;;10.36;62.94;99006.94;4988508;28;20605;-85
2021/12/16 07:14:51;;;;;;;14.40;7.68;;;;;;;10.32;62.90;99010.16;4989950;28;20650;-86
2021/12/16 07:17:17;;;;;;;14.57;8.88;;;;;;;10.54;62.49;99000.34;5002343;28;20176;-86
2021/12/16 07:19:44;;;;;;;15.63;8.95;;;;;;;10.41;62.49;99011.56;4987580;28;20621;-86
2021/12/16 07:22:10;;;;;;;13.70;8.07;;;;;;;10.35;62.99;99013.16;4989470;28;20588;-86
2021/12/16 07:24:36;;;;;;;15.43;9.40;;;;;;;10.36;62.87;99024.38;4989498;28;20400;-86
2021/12/16 07:27:03;;;;;;;14.23;9.25;;;;;;;10.31;63.02;99024.94;4976383;28;20328;-86
2021/12/16 07:29:28;;;;;;;15.02;9.20;;;;;;;10.23;63.26;99017.28;4972940;28;20250;-86
2021/12/16 07:31:54;;;;;;;17.88;10.48;;;;;;;10.21;63.30;99032.31;4987182;28;20142;-86
2021/12/16 07:34:20;;;;;;;16.65;10.45;;;;;;;10.22;63.23;99018.31;4966401;28;20185;-86
2021/12/16 07:36:46;;;;;;;15.18;9.10;;;;;;;10.26;63.22;99032.53;4988823;28;20242;-86
2021/12/16 07:39:14;;;;;;;15.35;8.93;;;;;;;10.19;63.39;99042.13;4972827;28;20170;-86
2021/12/16 07:41:43;;;;;;;15.57;9.98;;;;;;;10.28;63.47;99041.75;5005687;28;20265;-86
2021/12/16 07:44:11;;;;;;;19.90;10.65;;;;;;;10.19;63.36;99040.31;4989241;28;20272;-86
2021/12/16 07:46:44;;;;;;;15.20;9.27;;;;;;;10.16;63.51;99050.31;4988837;28;20192;-86
2021/12/16 07:49:18;;;;;;;18.60;10.88;;;;;;;10.14;63.01;99053.09;5006255;28;20159;-86
2021/12/16 07:51:45;;;;;;;14.27;9.02;;;;;;;10.34;62.93;99047.22;4972373;28;20096;-86
2021/12/16 07:54:12;;;;;;;14.95;8.50;;;;;;;10.35;62.91;99047.03;4988604;28;20402;-86
2021/12/16 07:56:38;;;;;;;13.65;7.40;;;;;;;10.35;63.25;99074.84;4981257;28;20309;-86
2021/12/16 07:59:04;;;;;;;28.20;16.08;;;;;;;10.17;63.52;99059.75;5002743;28;20283;-85
2021/12/16 08:01:30;;;;;;;15.68;9.57;;;;;;;10.32;63.45;99070.03;4981114;28;20166;-86
2021/12/16 08:03:56;;;;;;;14.73;8.32;;;;;;;10.33;63.43;99076.84;5003808;28;20647;-86
2021/12/16 08:06:24;;;;;;;15.00;9.80;;;;;;;10.33;63.12;99082.03;4987415;28;20249;-86
2021/12/16 08:08:51;;;;;;;20.10;12.10;;;;;;;10.29;63.46;99069.38;4971592;28;20278;-86
2021/12/16 08:11:16;;;;;;;25.17;15.27;;;;;;;10.40;63.15;99088.06;4970207;28;20268;-86
2021/12/16 08:13:42;;;;;;;21.13;12.35;;;;;;;10.40;63.22;99082.88;4988202;28;20719;-86
2021/12/16 08:16:08;;;;;;;21.75;12.07;;;;;;;10.41;63.29;99089.69;4964867;28;20279;-86
2021/12/16 08:18:34;;;;;;;21.92;13.75;;;;;;;10.40;63.15;99093.28;4996096;28;20198;-86
2021/12/16 08:20:59;;;;;;;20.65;12.27;;;;;;;10.42;63.63;99091.31;4984864;28;20262;-86
2021/12/16 08:23:25;;;;;;;19.60;12.05;;;;;;;10.44;63.53;99094.50;4968258;28;20174;-86
2021/12/16 08:25:51;;;;;;;17.10;11.77;;;;;;;10.46;63.50;99100.31;4971098;28;20146;-86
2021/12/16 08:28:17;;;;;;;18.33;11.95;;;;;;;10.48;63.31;99106.13;5005406;28;20161;-86
2021/12/16 08:30:46;;;;;;;19.77;12.85;;;;;;;10.40;63.39;99094.09;4983751;28;20374;-86
2021/12/16 08:33:13;;;;;;;21.38;13.60;;;;;;;10.47;63.33;99101.94;5003551;28;20244;-86
2021/12/16 08:35:41;;;;;;;20.67;13.40;;;;;;;10.38;63.61;99100.50;4988713;28;20253;-86
2021/12/16 08:38:09;;;;;;;20.23;12.38;;;;;;;10.40;63.75;99098.50;4991877;28;20225;-86
2021/12/16 08:40:35;;;;;;;20.10;12.73;;;;;;;10.55;63.58;99114.75;4988457;28;20375;-86
2021/12/16 08:43:01;;;;;;;18.13;11.88;;;;;;;10.52;63.52;99096.13;4969275;28;20190;-86
2021/12/16 08:45:30;;;;;;;17.67;11.20;;;;;;;10.61;63.05;99114.00;4968509;28;20163;-86
2021/12/16 08:47:56;;;;;;;20.30;12.90;;;;;;;10.64;63.70;99111.00;4974151;28;20836;-86
2021/12/16 08:50:25;;;;;;;15.73;11.20;;;;;;;10.57;63.19;99104.94;4969189;28;20182;-86
2021/12/16 08:52:51;;;;;;;15.45;10.95;;;;;;;10.77;63.11;99110.22;4975360;28;20181;-86
2021/12/16 08:55:17;;;;;;;13.68;9.32;;;;;;;10.74;62.90;99102.00;4973008;28;20388;-86
2021/12/16 08:57:43;;;;;;;17.45;9.40;;;;;;;10.78;62.68;99111.84;4994102;28;20184;-86
2021/12/16 09:00:13;;;;;;;16.23;9.90;;;;;;;10.80;63.04;99117.66;4961887;28;20097;-86
2021/12/16 09:02:38;;;;;;;15.07;9.57;;;;;;;10.87;62.75;99115.84;4983786;28;20188;-86
2021/12/16 09:05:05;;;;;;;16.88;10.25;;;;;;;11.03;62.28;99119.06;4980687;28;20233;-86
2021/12/16 09:07:31;;;;;;;15.02;10.27;;;;;;;11.10;62.02;99116.47;4990807;28;20763;-86
2021/12/16 09:09:58;;;;;;;15.10;9.93;;;;;;;11.08;62.05;99121.09;5007417;28;20240;-86
2021/12/16 09:14:56;;;;;;;13.80;10.10;;;;;;;11.08;62.32;99132.31;4991861;28;20249;-86
2021/12/16 09:17:21;;;;;;;15.15;10.75;;;;;;;11.10;62.54;99126.91;5018377;28;20188;-86
2021/12/16 09:19:50;;;;;;;16.75;10.55;;;;;;;11.03;62.77;99134.72;4985062;28;20563;-86
2021/12/16 09:22:17;;;;;;;15.52;9.80;;;;;;;11.13;62.54;99126.50;4992920;28;20200;-86
2021/12/16 09:24:43;;;;;;;16.27;10.15;;;;;;;11.11;62.97;99137.13;5003977;28;20221;-86
2021/12/16 09:27:09;;;;;;;18.25;11.52;;;;;;;11.15;62.53;99137.53;4987994;28;20193;-86
2021/12/16 09:29:34;;;;;;;18.92;11.35;;;;;;;11.21;62.37;99139.38;4990657;28;20286;-86
2021/12/16 09:32:02;;;;;;;19.15;12.93;;;;;;;11.18;62.44;99137.16;5023197;28;20197;-86
2021/12/16 09:34:28;;;;;;;18.60;12.20;;;;;;;11.22;62.57;99140.94;4990824;28;20201;-86
2021/12/16 09:36:54;;;;;;;23.02;13.27;;;;;;;11.31;62.57;99152.81;4979214;28;20169;-86
2021/12/16 09:39:23;;;;;;;17.98;12.43;;;;;;;11.35;62.73;99148.00;4991740;28;20197;-86
2021/12/16 09:41:51;;;;;;;20.23;13.57;;;;;;;11.36;62.13;99154.78;4974359;28;20327;-86
2021/12/16 09:44:18;;;;;;;18.30;12.07;;;;;;;11.41;62.14;99161.03;4983007;28;20178;-86
2021/12/16 09:46:49;;;;;;;16.83;10.68;;;;;;;11.34;62.10;99157.59;4990608;28;20174;-86
2021/12/16 09:49:16;;;;;;;16.30;10.15;;;;;;;11.56;62.24;99152.19;4971527;28;20204;-86
2021/12/16 09:51:43;;;;;;;19.08;12.18;;;;;;;11.56;62.15;99150.38;4988639;28;20176;-86
2021/12/16 09:54:13;;;;;;;20.77;13.80;;;;;;;11.59;61.56;99154.41;4998527;28;20166;-86
2021/12/16 09:56:41;;;;;;;20.40;13.98;;;;;;;11.59;61.86;99149.19;4997449;28;20197;-86
2021/12/16 09:59:08;;;;;;;16.88;11.32;;;;;;;11.73;61.53;99150.78;4987207;28;20366;-86
2021/12/16 10:01:34;;;;;;;17.33;12.05;;;;;;;11.80;61.59;99145.56;4971575;28;20192;-86
2021/12/16 10:04:03;;;;;;;15.73;10.13;;;;;;;11.81;61.82;99147.97;4972169;28;20615;-86
2021/12/16 10:06:30;;;;;;;16.33;10.20;;;;;;;11.90;61.23;99150.34;5006732;28;20420;-86
2021/12/16 10:08:59;;;;;;;14.73;9.57;;;;;;;11.93;61.03;99155.22;4973240;28;20513;-86
2021/12/16 10:11:24;;;;;;;12.25;7.82;;;;;;;11.95;60.94;99147.97;5006814;28;20623;-86
2021/12/16 10:14:04;;;;;;;12.98;8.30;;;;;;;11.98;61.02;99142.34;4987808;28;20196;-86
2021/12/16 10:19:17;;;;;;;13.77;10.05;;;;;;;12.02;60.29;99148.75;5000531;28;20268;-86
2021/12/16 10:21:44;;;;;;;15.30;9.38;;;;;;;12.03;60.60;99145.16;4984211;28;20200;-86
2021/12/16 10:24:31;;;;;;;17.52;10.50;;;;;;;11.81;60.60;99168.03;4981067;28;20209;-86
2021/12/16 10:27:15;;;;;;;18.70;10.90;;;;;;;11.70;60.91;99161.59;4971903;28;20178;-86
2021/12/16 10:29:53;;;;;;;14.90;9.75;;;;;;;11.62;61.46;99154.81;4995968;28;20255;-86
2021/12/16 10:32:43;;;;;;;15.35;9.75;;;;;;;11.65;61.33;99156.19;4989883;28;20189;-86
2021/12/16 10:35:31;;;;;;;15.73;10.38;;;;;;;11.77;61.73;99156.38;4987727;28;20246;-86
2021/12/16 10:38:02;;;;;;;14.63;7.30;;;;;;;11.65;61.28;99150.19;4980690;28;20207;-85
2021/12/16 10:40:43;;;;;;;12.60;7.55;;;;;;;11.73;60.66;99165.63;4979510;28;20690;-86
2021/12/16 10:43:14;;;;;;;10.45;6.88;;;;;;;11.80;60.82;99156.78;4985078;28;20268;-85
2021/12/16 10:45:44;;;;;;;12.10;6.57;;;;;;;11.70;60.99;99161.59;5003001;28;20240;-86
2021/12/16 10:48:16;;;;;;;12.27;7.50;;;;;;;11.87;60.75;99169.81;4988832;28;20270;-86
2021/12/16 10:50:59;;;;;;;31.30;16.88;;;;;;;11.84;61.11;99167.66;5005273;28;20681;-85
2021/12/16 10:53:43;;;;;;;13.00;7.55;;;;;;;11.71;61.05;99167.66;5013782;28;20258;-85
2021/12/16 10:56:09;;;;;;;33.72;19.52;;;;;;;11.94;60.45;99167.25;5000345;28;20197;-85
2021/12/16 10:58:48;;;;;;;11.77;6.82;;;;;;;11.78;60.63;99169.22;4972214;28;20292;-85
2021/12/16 11:01:45;;;;;;;14.10;7.70;;;;;;;11.82;60.84;99169.63;5001910;28;20235;-85
2021/12/16 11:04:26;;;;;;;12.43;8.00;;;;;;;11.86;60.60;99160.41;4999505;28;20714;-86
2021/12/16 11:07:00;;;;;;;10.50;7.00;;;;;;;12.17;59.82;99164.97;4988400;28;20204;-85
2021/12/16 11:09:52;;;;;;;10.35;6.30;;;;;;;11.96;60.23;99175.66;4988500;28;20696;-85
2021/12/16 11:12:34;;;;;;;12.73;6.97;;;;;;;12.10;59.45;99166.03;5004788;28;20325;-86
2021/12/16 11:15:20;;;;;;;9.70;6.88;;;;;;;12.26;59.49;99154.31;4996046;28;20234;-86
2021/12/16 11:18:12;;;;;;;13.18;8.13;;;;;;;12.26;58.98;99164.75;4974854;28;20378;-86
2021/12/16 11:21:01;;;;;;;11.10;7.63;;;;;;;12.39;58.67;99162.13;4984551;28;20188;-86
2021/12/16 11:23:33;;;;;;;12.60;7.32;;;;;;;12.50;58.97;99158.03;5005342;28;20714;-86
2021/12/16 11:26:06;;;;;;;10.77;7.95;;;;;;;12.44;58.98;99159.69;5004015;28;20235;-85
2021/12/16 11:28:35;;;;;;;11.68;7.50;;;;;;;12.66;58.62;99157.56;4980707;28;20608;-85
2021/12/16 11:31:09;;;;;;;12.45;7.07;;;;;;;12.58;58.59;99149.16;4986851;28;20366;-86
2021/12/16 11:33:42;;;;;;;12.70;8.73;;;;;;;12.63;58.16;99154.56;4993632;28;20167;-87
2021/12/16 11:36:14;;;;;;;16.45;8.07;;;;;;;12.72;57.78;99148.09;4984202;28;20205;-84
2021/12/16 11:38:44;;;;;;;9.20;6.60;;;;;;;12.86;57.32;99146.19;4984750;28;20379;-85
2021/12/16 11:41:14;;;;;;;10.25;6.22;;;;;;;12.93;57.65;99145.13;4981302;28;20256;-86
2021/12/16 11:44:00;;;;;;;9.68;6.50;;;;;;;12.78;57.65;99147.25;4979835;28;20200;-86
2021/12/16 11:46:38;;;;;;;10.55;6.70;;;;;;;12.79;57.34;99148.84;4970564;28;20223;-86
2021/12/16 11:49:21;;;;;;;11.60;6.05;;;;;;;12.83;56.98;99136.94;4992368;28;20706;-86
2021/12/16 11:51:58;;;;;;;8.48;5.68;;;;;;;12.91;56.68;99147.16;4966925;28;20259;-86
2021/12/16 11:54:33;;;;;;;9.20;5.38;;;;;;;12.82;56.62;99148.44;4979320;28;20217;-86
2021/12/16 11:57:06;;;;;;;7.50;5.38;;;;;;;12.99;56.49;99142.69;4982321;28;20155;-85
2021/12/16 11:59:39;;;;;;;6.07;4.88;;;;;;;12.91;56.00;99147.16;4992260;28;20658;-86
2021/12/16 12:02:06;;;;;;;6.82;4.70;;;;;;;13.00;56.07;99144.31;4971225;28;20707;-86
2021/12/16 12:04:36;;;;;;;7.10;5.00;;;;;;;12.97;55.70;99137.69;4971361;28;20220;-85
2021/12/16 12:07:11;;;;;;;6.72;4.00;;;;;;;12.67;54.37;99147.91;4986726;28;20208;-84
2021/12/16 12:09:40;;;;;;;6.88;3.80;;;;;;;12.65;54.58;99145.50;5004325;28;20189;-85
2021/12/16 12:12:06;;;;;;;5.97;4.10;;;;;;;12.96;55.19;99145.75;4999582;28;20208;-85
2021/12/16 12:14:36;;;;;;;5.13;3.17;;;;;;;12.57;53.61;99142.34;4983963;28;20253;-85
2021/12/16 12:17:08;;;;;;;5.47;3.20;;;;;;;12.88;54.23;99142.34;4995273;28;20274;-85
2021/12/16 12:19:40;;;;;;;6.55;3.80;;;;;;;12.91;54.34;99138.53;5002539;28;20167;-87
2021/12/16 12:22:06;;;;;;;4.65;3.58;;;;;;;13.17;53.18;99129.69;4976276;28;20214;-87
2021/12/16 12:24:43;;;;;;;3.53;2.60;;;;;;;12.64;53.29;99128.22;4987118;28;20274;-85
2021/12/16 12:27:12;;;;;;;7.38;3.03;;;;;;;12.81;52.96;99132.97;4988188;28;20185;-86
2021/12/16 12:29:53;;;;;;;4.97;2.63;;;;;;;12.79;52.71;99132.38;4981799;28;20731;-85
2021/12/16 12:32:24;;;;;;;4.93;2.88;;;;;;;12.84;52.54;99130.72;4975529;28;20541;-86
2021/12/16 12:35:02;;;;;;;3.60;2.97;;;;;;;12.83;52.80;99133.53;4985740;28;20189;-86
2021/12/16 12:37:31;;;;;;;3.63;2.58;;;;;;;12.99;51.85;99125.22;4980461;28;20154;-86
2021/12/16 12:40:18;;;;;;;4.38;2.45;;;;;;;12.93;52.27;99128.66;4985226;28;20166;-88
2021/12/16 12:42:44;;;;;;;4.60;2.75;;;;;;;12.92;51.26;99134.91;4987204;28;20203;-86
2021/12/16 12:45:11;;;;;;;4.03;3.03;;;;;;;12.89;51.31;99130.09;4967449;28;20070;-86
2021/12/16 12:47:39;;;;;;;3.28;1.92;;;;;;;12.72;51.17;99133.19;4986557;28;20212;-85
2021/12/16 12:50:15;;;;;;;5.25;2.50;;;;;;;12.64;52.10;99140.50;4984212;28;20707;-85
2021/12/16 12:52:45;;;;;;;5.78;2.90;;;;;;;12.66;52.11;99133.22;5000903;28;20675;-86
2021/12/16 12:55:14;;;;;;;5.22;2.65;;;;;;;12.62;52.05;99132.06;4994232;28;20194;-87
2021/12/16 12:57:42;;;;;;;4.90;2.38;;;;;;;12.74;51.77;99136.41;4993878;28;20314;-86
2021/12/16 13:00:25;;;;;;;5.65;3.20;;;;;;;12.44;52.08;99128.34;4984776;28;20193;-85
2021/12/16 13:02:57;;;;;;;3.30;2.50;;;;;;;12.72;51.00;99132.41;4970969;28;20285;-86
2021/12/16 13:05:23;;;;;;;3.35;2.58;;;;;;;12.93;51.23;99126.84;4964829;28;20263;-86
2021/12/16 13:08:09;;;;;;;5.22;3.72;;;;;;;12.73;52.68;99134.00;4986629;28;20222;-86
2021/12/16 13:10:40;;;;;;;3.78;2.45;;;;;;;12.85;52.06;99126.28;4966981;28;20389;-87
2021/12/16 13:27:33;;;;;;;2.58;2.08;;;;;;;12.91;50.97;99115.78;5009876;28;20256;-86
2021/12/16 13:30:17;;;;;;;3.10;2.03;;;;;;;13.19;50.55;99122.44;4984380;28;20201;-87
2021/12/16 13:33:13;;;;;;;3.13;1.90;;;;;;;13.00;50.69;99112.94;4988579;28;20605;-88
2021/12/16 13:35:47;;;;;;;7.22;3.10;;;;;;;13.12;50.66;99111.22;4991470;28;20192;-87
2021/12/16 13:38:12;;;;;;;4.65;2.88;;;;;;;13.17;50.83;99108.78;4990054;28;20246;-86
2021/12/16 13:40:41;;;;;;;2.13;1.70;;;;;;;13.22;49.41;99103.69;4984533;28;20760;-87
2021/12/16 13:43:17;;;;;;;4.47;2.67;;;;;;;13.07;49.88;99095.38;4966894;28;20237;-85
2021/12/16 13:45:54;;;;;;;4.50;2.45;;;;;;;13.06;49.67;99112.09;5001087;28;20225;-84
2021/12/16 14:01:25;;;;;;;4.10;2.10;;;;;;;13.01;49.33;99098.84;4987783;28;20294;-85
2021/12/16 14:03:23;;;;;;;;;;;;;;;12.84;49.45;99101.97;5004979;28;20282;-87
2021/12/16 14:06:22;;;;;;;3.30;2.00;;;;;;;13.26;49.76;99099.66;4990492;28;20076;-86
2021/12/16 14:08:52;;;;;;;3.15;2.20;;;;;;;13.21;50.06;99115.19;4993218;28;20646;-87
2021/12/16 14:14:59;;;;;;;5.22;2.10;;;;;;;13.30;50.50;99123.56;4995524;28;20658;-86
2021/12/16 14:17:49;;;;;;;5.18;2.10;;;;;;;13.24;50.62;99127.03;5003179;28;20102;-86
2021/12/16 14:23:23;;;;;;;5.45;1.80;;;;;;;13.40;50.13;99117.88;5007452;28;20177;-86
2021/12/16 14:45:36;;;;;;;3.75;2.25;;;;;;;12.99;50.62;99132.22;4951236;28;20711;-86
2021/12/16 14:48:20;;;;;;;3.45;2.13;;;;;;;13.17;50.68;99134.13;4969682;28;20314;-85
2021/12/16 14:50:52;;;;;;;3.70;2.30;;;;;;;12.86;51.21;99125.28;4949219;28;20171;-85
2021/12/16 14:53:39;;;;;;;6.95;2.63;;;;;;;13.02;50.98;99131.81;4967800;28;20634;-86
2021/12/16 14:56:11;;;;;;;5.80;3.65;;;;;;;13.08;51.08;99130.97;4965638;28;20214;-86
2021/12/16 14:58:38;;;;;;;6.93;4.65;;;;;;;13.17;51.06;99127.09;4974437;28;20168;-86
2021/12/16 15:01:20;;;;;;;5.75;4.00;;;;;;;12.99;51.46;99133.06;4943602;28;20184;-86
2021/12/16 15:03:49;;;;;;;4.18;2.53;;;;;;;13.12;51.40;99132.16;4960224;28;20233;-86
2021/12/16 15:06:24;;;;;;;5.90;3.17;;;;;;;13.06;50.93;99133.00;4970186;28;20559;-85